首页
METAR-TAF:

METAR-TAF

机场 :

Cranfield, 英格兰

纬度: 52-04N, 经度: 000-37W, 海拔: 111米

当前天气观测

该预报发布于5小时和19分钟前的16:20 UTC
风速7节,风向西,在西转西南西转西北之间变化
温度 19°C
湿度 68%
气压 1007 hPa
能见度10公里或以上
散云层高于2500英尺

METAR: EGTC 191620Z 27007KT 240V300 9999 SCT025 19/13 Q1007

时间: 22:39 (21:39 UTC)

预报

该预报发布于7小时和43分钟前的13:56 UTC
预报有效从19日的 15点(UTC)到 19日的 18点(UTC)
风速6节,风向西转西北
能见度10公里或以上
散云层高于1200英尺
短暂存在
从 19日的 15点(UTC)到 19日的 18点(UTC)
能見度: 6000
多云层高于1200英尺
阵雨
几率 30% :
短暂存在
从 19日的 15点(UTC)到 19日的 18点(UTC)
能見度: 3000
多云层高于900英尺
大阵雨

TAF: EGTC 191356Z 1915/1918 29006KT 9999 SCT012 TEMPO 1915/1918 6000 SHRA BKN012 PROB30 TEMPO 1915/1918 3000 +SHRA BKN009

超过4000个机场的气象观测和天气预报(METAR&TAF报告)。

可查询的气象台以黄色和红色小点在地图上表示。

将鼠标移到小点上方,可查看气象台名称。

然后点击查看天气观测和预报。

如需切换地图:点击带黑十字的绿色按钮放大地图;点击带横线的绿色按钮缩小地图;或者点击绿色箭头查看邻近地区的地图。


METAR-TAF: